sensor_id;sensor_type;location;lat;lon;timestamp;pressure;altitude;pressure_sealevel;temperature;humidity
30421;BME280;17218;54.070;10.012;2022-08-03T00:02:00;101234.91;;;19.64;100.00
30421;BME280;17218;54.070;10.012;2022-08-03T00:04:28;101234.16;;;19.60;100.00
30421;BME280;17218;54.070;10.012;2022-08-03T00:06:56;101238.53;;;19.61;100.00
30421;BME280;17218;54.070;10.012;2022-08-03T00:09:22;101231.72;;;19.55;100.00
30421;BME280;17218;54.070;10.012;2022-08-03T00:11:49;101232.66;;;19.54;100.00
30421;BME280;17218;54.070;10.012;2022-08-03T00:14:15;101227.50;;;19.51;100.00
30421;BME280;17218;54.070;10.012;2022-08-03T00:16:42;101226.75;;;19.48;100.00
30421;BME280;17218;54.070;10.012;2022-08-03T00:19:09;101225.13;;;19.43;100.00
30421;BME280;17218;54.070;10.012;2022-08-03T00:21:35;101226.19;;;19.39;100.00
30421;BME280;17218;54.070;10.012;2022-08-03T00:24:04;101220.28;;;19.33;100.00
30421;BME280;17218;54.070;10.012;2022-08-03T00:26:31;101228.22;;;19.31;100.00
30421;BME280;17218;54.070;10.012;2022-08-03T00:28:57;101230.09;;;19.27;100.00
30421;BME280;17218;54.070;10.012;2022-08-03T00:31:24;101230.22;;;19.24;100.00
30421;BME280;17218;54.070;10.012;2022-08-03T00:33:50;101225.13;;;19.19;100.00
30421;BME280;17218;54.070;10.012;2022-08-03T00:36:17;101228.75;;;19.17;100.00
30421;BME280;17218;54.070;10.012;2022-08-03T00:38:43;101223.59;;;19.14;100.00
30421;BME280;17218;54.070;10.012;2022-08-03T00:41:11;101229.78;;;19.11;100.00
30421;BME280;17218;54.070;10.012;2022-08-03T00:43:38;101234.22;;;19.09;100.00
30421;BME280;17218;54.070;10.012;2022-08-03T00:46:04;101222.97;;;19.05;100.00
30421;BME280;17218;54.070;10.012;2022-08-03T00:48:31;101230.09;;;19.02;100.00
30421;BME280;17218;54.070;10.012;2022-08-03T00:50:58;101222.28;;;19.00;100.00
30421;BME280;17218;54.070;10.012;2022-08-03T00:53:25;101227.53;;;19.00;100.00
30421;BME280;17218;54.070;10.012;2022-08-03T00:55:52;101224.16;;;18.97;100.00
30421;BME280;17218;54.070;10.012;2022-08-03T00:58:21;101219.88;;;18.94;100.00
30421;BME280;17218;54.070;10.012;2022-08-03T01:00:48;101227.81;;;18.92;100.00
30421;BME280;17218;54.070;10.012;2022-08-03T01:03:15;101220.78;;;18.93;100.00
30421;BME280;17218;54.070;10.012;2022-08-03T01:05:50;101220.94;;;18.88;100.00
30421;BME280;17218;54.070;10.012;2022-08-03T01:08:22;101211.47;;;18.84;100.00
30421;BME280;17218;54.070;10.012;2022-08-03T01:11:01;101209.75;;;18.83;100.00
30421;BME280;17218;54.070;10.012;2022-08-03T01:13:40;101213.44;;;18.77;100.00
30421;BME280;17218;54.070;10.012;2022-08-03T01:16:14;101209.13;;;18.76;100.00
30421;BME280;17218;54.070;10.012;2022-08-03T01:19:03;101216.19;;;18.74;100.00
30421;BME280;17218;54.070;10.012;2022-08-03T01:21:45;101211.88;;;18.71;100.00
30421;BME280;17218;54.070;10.012;2022-08-03T01:24:31;101211.19;;;18.66;100.00
30421;BME280;17218;54.070;10.012;2022-08-03T01:27:06;101213.88;;;18.65;100.00
30421;BME280;17218;54.070;10.012;2022-08-03T01:30:00;101214.66;;;18.67;100.00
30421;BME280;17218;54.070;10.012;2022-08-03T01:32:34;101205.88;;;18.68;100.00
30421;BME280;17218;54.070;10.012;2022-08-03T01:35:05;101213.72;;;18.69;100.00
30421;BME280;17218;54.070;10.012;2022-08-03T01:37:38;101206.75;;;18.68;100.00
30421;BME280;17218;54.070;10.012;2022-08-03T01:40:07;101211.13;;;18.68;100.00
30421;BME280;17218;54.070;10.012;2022-08-03T01:42:35;101213.75;;;18.68;100.00
30421;BME280;17218;54.070;10.012;2022-08-03T01:45:06;101210.34;;;18.66;100.00
30421;BME280;17218;54.070;10.012;2022-08-03T01:47:34;101212.91;;;18.67;100.00
30421;BME280;17218;54.070;10.012;2022-08-03T01:50:03;101209.31;;;18.70;100.00
30421;BME280;17218;54.070;10.012;2022-08-03T01:52:31;101198.88;;;18.68;100.00
30421;BME280;17218;54.070;10.012;2022-08-03T01:55:00;101198.81;;;18.70;100.00
30421;BME280;17218;54.070;10.012;2022-08-03T01:57:32;101197.13;;;18.69;100.00
30421;BME280;17218;54.070;10.012;2022-08-03T02:00:01;101200.56;;;18.71;100.00
30421;BME280;17218;54.070;10.012;2022-08-03T02:02:30;101196.19;;;18.70;100.00
30421;BME280;17218;54.070;10.012;2022-08-03T02:04:58;101192.69;;;18.71;100.00
30421;BME280;17218;54.070;10.012;2022-08-03T02:07:27;101193.47;;;18.73;100.00
30421;BME280;17218;54.070;10.012;2022-08-03T02:09:55;101196.06;;;18.75;100.00
30421;BME280;17218;54.070;10.012;2022-08-03T02:12:24;101205.50;;;18.79;100.00
30421;BME280;17218;54.070;10.012;2022-08-03T02:14:52;101199.44;;;18.78;100.00
30421;BME280;17218;54.070;10.012;2022-08-03T02:17:25;101194.94;;;18.82;100.00
30421;BME280;17218;54.070;10.012;2022-08-03T02:19:55;101197.56;;;18.82;100.00
30421;BME280;17218;54.070;10.012;2022-08-03T02:22:26;101194.06;;;18.81;100.00
30421;BME280;17218;54.070;10.012;2022-08-03T02:24:53;101195.81;;;18.81;100.00
30421;BME280;17218;54.070;10.012;2022-08-03T02:27:21;101199.31;;;18.81;100.00
30421;BME280;17218;54.070;10.012;2022-08-03T02:29:52;101202.81;;;18.82;100.00
30421;BME280;17218;54.070;10.012;2022-08-03T02:32:27;101193.25;;;18.79;100.00
30421;BME280;17218;54.070;10.012;2022-08-03T02:34:57;101188.94;;;18.78;100.00
30421;BME280;17218;54.070;10.012;2022-08-03T02:37:39;101189.75;;;18.79;100.00
30421;BME280;17218;54.070;10.012;2022-08-03T02:40:08;101190.06;;;18.71;100.00
30421;BME280;17218;54.070;10.012;2022-08-03T02:42:37;101188.31;;;18.70;100.00
30421;BME280;17218;54.070;10.012;2022-08-03T02:45:08;101177.81;;;18.70;100.00
30421;BME280;17218;54.070;10.012;2022-08-03T02:47:38;101177.13;;;18.65;100.00
30421;BME280;17218;54.070;10.012;2022-08-03T02:50:08;101182.38;;;18.65;100.00
30421;BME280;17218;54.070;10.012;2022-08-03T02:52:37;101184.19;;;18.63;100.00
30421;BME280;17218;54.070;10.012;2022-08-03T02:55:06;101187.81;;;18.58;100.00
30421;BME280;17218;54.070;10.012;2022-08-03T02:57:35;101184.50;;;18.53;100.00
30421;BME280;17218;54.070;10.012;2022-08-03T03:00:04;101190.72;;;18.51;100.00
30421;BME280;17218;54.070;10.012;2022-08-03T03:02:31;101184.69;;;18.48;100.00
30421;BME280;17218;54.070;10.012;2022-08-03T03:05:00;101189.97;;;18.47;100.00
30421;BME280;17218;54.070;10.012;2022-08-03T03:07:29;101189.16;;;18.45;100.00
30421;BME280;17218;54.070;10.012;2022-08-03T03:09:56;101183.13;;;18.43;100.00
30421;BME280;17218;54.070;10.012;2022-08-03T03:12:24;101187.53;;;18.41;100.00
30421;BME280;17218;54.070;10.012;2022-08-03T03:14:53;101172.81;;;18.36;100.00
30421;BME280;17218;54.070;10.012;2022-08-03T03:17:23;101181.56;;;18.37;100.00
30421;BME280;17218;54.070;10.012;2022-08-03T03:19:50;101185.94;;;18.36;100.00
30421;BME280;17218;54.070;10.012;2022-08-03T03:22:21;101178.97;;;18.35;100.00
30421;BME280;17218;54.070;10.012;2022-08-03T03:24:50;101185.09;;;18.36;100.00
30421;BME280;17218;54.070;10.012;2022-08-03T03:27:19;101187.66;;;18.38;100.00
30421;BME280;17218;54.070;10.012;2022-08-03T03:29:47;101187.66;;;18.38;100.00
30421;BME280;17218;54.070;10.012;2022-08-03T03:32:14;101192.09;;;18.35;100.00
30421;BME280;17218;54.070;10.012;2022-08-03T03:34:41;101190.34;;;18.36;100.00
30421;BME280;17218;54.070;10.012;2022-08-03T03:37:07;101186.84;;;18.35;100.00
30421;BME280;17218;54.070;10.012;2022-08-03T03:39:36;101190.38;;;18.34;100.00
30421;BME280;17218;54.070;10.012;2022-08-03T03:42:05;101189.47;;;18.35;100.00
30421;BME280;17218;54.070;10.012;2022-08-03T03:44:31;101191.22;;;18.35;100.00
30421;BME280;17218;54.070;10.012;2022-08-03T03:46:58;101197.22;;;18.39;100.00
30421;BME280;17218;54.070;10.012;2022-08-03T03:49:25;101195.38;;;18.42;100.00
30421;BME280;17218;54.070;10.012;2022-08-03T03:51:52;101183.00;;;18.46;100.00
30421;BME280;17218;54.070;10.012;2022-08-03T03:54:20;101187.25;;;18.50;100.00
30421;BME280;17218;54.070;10.012;2022-08-03T03:56:46;101183.63;;;18.54;100.00
30421;BME280;17218;54.070;10.012;2022-08-03T03:59:14;101187.03;;;18.56;100.00
30421;BME280;17218;54.070;10.012;2022-08-03T04:01:41;101188.75;;;18.57;100.00
30421;BME280;17218;54.070;10.012;2022-08-03T04:04:08;101182.44;;;18.63;100.00
30421;BME280;17218;54.070;10.012;2022-08-03T04:06:52;101181.50;;;18.66;100.00
30421;BME280;17218;54.070;10.012;2022-08-03T04:09:38;101181.31;;;18.70;100.00
30421;BME280;17218;54.070;10.012;2022-08-03T04:12:25;101181.13;;;18.75;100.00
30421;BME280;17218;54.070;10.012;2022-08-03T04:14:56;101184.50;;;18.79;100.00
30421;BME280;17218;54.070;10.012;2022-08-03T04:17:26;101180.88;;;18.83;100.00
30421;BME280;17218;54.070;10.012;2022-08-03T04:19:55;101180.63;;;18.91;100.00
30421;BME280;17218;54.070;10.012;2022-08-03T04:22:26;101186.56;;;18.96;100.00
30421;BME280;17218;54.070;10.012;2022-08-03T04:24:59;101176.59;;;19.06;100.00
30421;BME280;17218;54.070;10.012;2022-08-03T04:27:31;101180.66;;;19.15;100.00
30421;BME280;17218;54.070;10.012;2022-08-03T04:30:02;101178.78;;;19.18;100.00
30421;BME280;17218;54.070;10.012;2022-08-03T04:32:29;101181.88;;;19.30;100.00
30421;BME280;17218;54.070;10.012;2022-08-03T04:34:56;101177.31;;;19.35;100.00
30421;BME280;17218;54.070;10.012;2022-08-03T04:37:31;101180.47;;;19.43;100.00
30421;BME280;17218;54.070;10.012;2022-08-03T04:40:02;101186.25;;;19.53;100.00
30421;BME280;17218;54.070;10.012;2022-08-03T04:42:32;101188.59;;;19.61;100.00
30421;BME280;17218;54.070;10.012;2022-08-03T04:45:02;101188.41;;;19.66;100.00
30421;BME280;17218;54.070;10.012;2022-08-03T04:47:31;101190.94;;;19.69;100.00
30421;BME280;17218;54.070;10.012;2022-08-03T04:50:00;101190.69;;;19.75;100.00
30421;BME280;17218;54.070;10.012;2022-08-03T04:52:26;101193.16;;;19.80;100.00
30421;BME280;17218;54.070;10.012;2022-08-03T04:54:53;101198.28;;;19.83;100.00
30421;BME280;17218;54.070;10.012;2022-08-03T04:57:20;101195.78;;;19.80;100.00
30421;BME280;17218;54.070;10.012;2022-08-03T04:59:46;101194.72;;;19.84;100.00
30421;BME280;17218;54.070;10.012;2022-08-03T05:02:14;101198.06;;;19.88;100.00
30421;BME280;17218;54.070;10.012;2022-08-03T05:04:41;101194.53;;;19.89;100.00
30421;BME280;17218;54.070;10.012;2022-08-03T05:07:10;101191.78;;;19.92;100.00
30421;BME280;17218;54.070;10.012;2022-08-03T05:09:37;101197.97;;;19.91;100.00
30421;BME280;17218;54.070;10.012;2022-08-03T05:12:04;101194.53;;;19.89;100.00
30421;BME280;17218;54.070;10.012;2022-08-03T05:14:31;101197.91;;;19.93;100.00
30421;BME280;17218;54.070;10.012;2022-08-03T05:16:58;101192.53;;;19.96;100.00
30421;BME280;17218;54.070;10.012;2022-08-03T05:19:26;101190.75;;;19.96;100.00
30421;BME280;17218;54.070;10.012;2022-08-03T05:21:52;101184.25;;;20.05;100.00
30421;BME280;17218;54.070;10.012;2022-08-03T05:24:19;101190.19;;;20.12;100.00
30421;BME280;17218;54.070;10.012;2022-08-03T05:26:45;101192.63;;;20.17;100.00
30421;BME280;17218;54.070;10.012;2022-08-03T05:29:12;101192.38;;;20.23;100.00
30421;BME280;17218;54.070;10.012;2022-08-03T05:31:38;101190.66;;;20.22;100.00
30421;BME280;17218;54.070;10.012;2022-08-03T05:34:05;101189.28;;;20.34;100.00
30421;BME280;17218;54.070;10.012;2022-08-03T05:36:33;101184.03;;;20.34;100.00
30421;BME280;17218;54.070;10.012;2022-08-03T05:39:00;101192.03;;;20.31;100.00
30421;BME280;17218;54.070;10.012;2022-08-03T05:41:27;101187.25;;;20.41;100.00
30421;BME280;17218;54.070;10.012;2022-08-03T05:43:54;101185.94;;;20.51;100.00
30421;BME280;17218;54.070;10.012;2022-08-03T05:46:21;101178.78;;;20.55;100.00
30421;BME280;17218;54.070;10.012;2022-08-03T05:48:48;101183.56;;;20.66;100.00
30421;BME280;17218;54.070;10.012;2022-08-03T05:51:15;101172.53;;;20.78;100.00
30421;BME280;17218;54.070;10.012;2022-08-03T05:53:46;101179.09;;;20.89;100.00
30421;BME280;17218;54.070;10.012;2022-08-03T05:56:12;101177.06;;;20.95;100.00
30421;BME280;17218;54.070;10.012;2022-08-03T05:58:39;101169.94;;;20.97;100.00
30421;BME280;17218;54.070;10.012;2022-08-03T06:01:05;101176.38;;;21.11;100.00
30421;BME280;17218;54.070;10.012;2022-08-03T06:03:32;101175.09;;;21.20;100.00
30421;BME280;17218;54.070;10.012;2022-08-03T06:05:59;101166.88;;;21.28;100.00
30421;BME280;17218;54.070;10.012;2022-08-03T06:08:26;101169.06;;;21.37;100.00
30421;BME280;17218;54.070;10.012;2022-08-03T06:10:54;101175.84;;;21.43;100.00
30421;BME280;17218;54.070;10.012;2022-08-03T06:13:20;101172.81;;;21.51;100.00
30421;BME280;17218;54.070;10.012;2022-08-03T06:15:47;101168.34;;;21.53;100.00
30421;BME280;17218;54.070;10.012;2022-08-03T06:18:13;101176.13;;;21.56;100.00
30421;BME280;17218;54.070;10.012;2022-08-03T06:20:40;101168.84;;;21.61;100.00
30421;BME280;17218;54.070;10.012;2022-08-03T06:23:07;101171.13;;;21.69;100.00
30421;BME280;17218;54.070;10.012;2022-08-03T06:25:33;101171.13;;;21.69;100.00
30421;BME280;17218;54.070;10.012;2022-08-03T06:28:01;101164.91;;;21.70;100.00
30421;BME280;17218;54.070;10.012;2022-08-03T06:30:29;101174.22;;;21.77;100.00
30421;BME280;17218;54.070;10.012;2022-08-03T06:32:56;101163.28;;;21.87;100.00
30421;BME280;17218;54.070;10.012;2022-08-03T06:35:22;101177.44;;;22.03;100.00
30421;BME280;17218;54.070;10.012;2022-08-03T06:37:50;101176.28;;;22.09;100.00
30421;BME280;17218;54.070;10.012;2022-08-03T06:40:18;101166.50;;;22.11;100.00
30421;BME280;17218;54.070;10.012;2022-08-03T06:42:47;101169.97;;;22.12;100.00
30421;BME280;17218;54.070;10.012;2022-08-03T06:45:15;101182.63;;;22.23;100.00
30421;BME280;17218;54.070;10.012;2022-08-03T06:47:41;101176.75;;;22.35;100.00
30421;BME280;17218;54.070;10.012;2022-08-03T06:50:09;101172.88;;;22.43;100.00
30421;BME280;17218;54.070;10.012;2022-08-03T06:52:36;101181.94;;;22.55;100.00
30421;BME280;17218;54.070;10.012;2022-08-03T06:55:03;101174.44;;;22.64;100.00
30421;BME280;17218;54.070;10.012;2022-08-03T06:57:30;101177.69;;;22.70;100.00
30421;BME280;17218;54.070;10.012;2022-08-03T06:59:56;101177.22;;;22.79;100.00
30421;BME280;17218;54.070;10.012;2022-08-03T07:02:27;101173.59;;;22.98;100.00
30421;BME280;17218;54.070;10.012;2022-08-03T07:04:55;101176.94;;;23.02;100.00
30421;BME280;17218;54.070;10.012;2022-08-03T07:07:21;101172.50;;;23.02;100.00
30421;BME280;17218;54.070;10.012;2022-08-03T07:09:48;101179.06;;;23.11;100.00
30421;BME280;17218;54.070;10.012;2022-08-03T07:12:15;101178.13;;;23.12;100.00
30421;BME280;17218;54.070;10.012;2022-08-03T07:14:41;101172.69;;;23.15;100.00
30421;BME280;17218;54.070;10.012;2022-08-03T07:17:08;101179.97;;;23.28;100.00
30421;BME280;17218;54.070;10.012;2022-08-03T07:19:36;101178.59;;;23.37;100.00
30421;BME280;17218;54.070;10.012;2022-08-03T07:22:02;101183.13;;;23.51;100.00
30421;BME280;17218;54.070;10.012;2022-08-03T07:24:29;101184.59;;;23.56;100.00
30421;BME280;17218;54.070;10.012;2022-08-03T07:26:56;101179.97;;;23.60;100.00
30421;BME280;17218;54.070;10.012;2022-08-03T07:29:22;101175.47;;;23.62;100.00
30421;BME280;17218;54.070;10.012;2022-08-03T07:31:51;101175.97;;;23.69;100.00
30421;BME280;17218;54.070;10.012;2022-08-03T07:34:17;101185.97;;;23.80;100.00
30421;BME280;17218;54.070;10.012;2022-08-03T07:36:46;101183.63;;;23.90;100.00
30421;BME280;17218;54.070;10.012;2022-08-03T07:39:12;101182.75;;;24.05;100.00
30421;BME280;17218;54.070;10.012;2022-08-03T07:41:39;101173.53;;;24.13;100.00
30421;BME280;17218;54.070;10.012;2022-08-03T07:44:06;101185.28;;;24.23;100.00
30421;BME280;17218;54.070;10.012;2022-08-03T07:46:32;101182.88;;;24.35;100.00
30421;BME280;17218;54.070;10.012;2022-08-03T07:48:59;101187.97;;;24.38;100.00
30421;BME280;17218;54.070;10.012;2022-08-03T07:51:25;101180.53;;;24.45;100.00
30421;BME280;17218;54.070;10.012;2022-08-03T07:53:53;101178.38;;;24.51;100.00
30421;BME280;17218;54.070;10.012;2022-08-03T07:56:21;101181.69;;;24.55;100.00
30421;BME280;17218;54.070;10.012;2022-08-03T07:58:49;101177.38;;;24.69;100.00
30421;BME280;17218;54.070;10.012;2022-08-03T08:01:15;101172.91;;;24.84;100.00
30421;BME280;17218;54.070;10.012;2022-08-03T08:03:43;101172.47;;;25.06;100.00
30421;BME280;17218;54.070;10.012;2022-08-03T08:06:10;101169.91;;;25.19;100.00
30421;BME280;17218;54.070;10.012;2022-08-03T08:08:37;101173.38;;;25.34;100.00
30421;BME280;17218;54.070;10.012;2022-08-03T08:11:05;101170.16;;;25.44;100.00
30421;BME280;17218;54.070;10.012;2022-08-03T08:13:32;101166.03;;;25.53;100.00
30421;BME280;17218;54.070;10.012;2022-08-03T08:15:59;101170.84;;;25.60;100.00
30421;BME280;17218;54.070;10.012;2022-08-03T08:18:26;101165.94;;;25.54;100.00
30421;BME280;17218;54.070;10.012;2022-08-03T08:20:54;101171.13;;;25.56;100.00
30421;BME280;17218;54.070;10.012;2022-08-03T08:23:23;101169.25;;;25.58;100.00
30421;BME280;17218;54.070;10.012;2022-08-03T08:25:50;101173.88;;;25.69;100.00
30421;BME280;17218;54.070;10.012;2022-08-03T08:28:19;101176.91;;;25.77;100.00
30421;BME280;17218;54.070;10.012;2022-08-03T08:30:46;101169.97;;;25.75;100.00
30421;BME280;17218;54.070;10.012;2022-08-03T08:33:13;101175.31;;;25.88;100.00
30421;BME280;17218;54.070;10.012;2022-08-03T08:35:40;101174.72;;;25.97;100.00
30421;BME280;17218;54.070;10.012;2022-08-03T08:38:06;101162.34;;;26.11;100.00
30421;BME280;17218;54.070;10.012;2022-08-03T08:40:33;101172.88;;;26.25;100.00
30421;BME280;17218;54.070;10.012;2022-08-03T08:43:01;101165.66;;;26.27;100.00
30421;BME280;17218;54.070;10.012;2022-08-03T08:45:29;101170.38;;;26.37;99.71
30421;BME280;17218;54.070;10.012;2022-08-03T08:47:56;101156.38;;;26.48;100.00
30421;BME280;17218;54.070;10.012;2022-08-03T08:50:26;101157.53;;;26.56;98.19
30421;BME280;17218;54.070;10.012;2022-08-03T08:52:53;101162.00;;;26.69;100.00
30421;BME280;17218;54.070;10.012;2022-08-03T08:55:24;101155.63;;;26.72;99.02
30421;BME280;17218;54.070;10.012;2022-08-03T08:58:01;101164.34;;;26.87;100.00
30421;BME280;17218;54.070;10.012;2022-08-03T09:00:32;101155.03;;;26.92;100.00
30421;BME280;17218;54.070;10.012;2022-08-03T09:02:59;101152.94;;;26.98;97.77
30421;BME280;17218;54.070;10.012;2022-08-03T09:05:26;101166.00;;;27.01;98.80
30421;BME280;17218;54.070;10.012;2022-08-03T09:07:56;101166.75;;;27.03;100.00
30421;BME280;17218;54.070;10.012;2022-08-03T09:10:23;101168.34;;;27.06;100.00
30421;BME280;17218;54.070;10.012;2022-08-03T09:12:51;101164.41;;;27.11;100.00
30421;BME280;17218;54.070;10.012;2022-08-03T09:15:22;101160.44;;;27.04;100.00
30421;BME280;17218;54.070;10.012;2022-08-03T09:17:53;101165.59;;;26.94;96.97
30421;BME280;17218;54.070;10.012;2022-08-03T09:20:21;101161.22;;;27.06;100.00
30421;BME280;17218;54.070;10.012;2022-08-03T09:22:52;101155.47;;;26.99;100.00
30421;BME280;17218;54.070;10.012;2022-08-03T09:25:25;101156.75;;;27.20;100.00
30421;BME280;17218;54.070;10.012;2022-08-03T09:27:52;101164.72;;;27.20;96.67
30421;BME280;17218;54.070;10.012;2022-08-03T09:30:19;101158.75;;;27.29;99.15
30421;BME280;17218;54.070;10.012;2022-08-03T09:32:46;101155.84;;;27.32;98.33
30421;BME280;17218;54.070;10.012;2022-08-03T09:35:14;101161.47;;;27.41;96.45
30421;BME280;17218;54.070;10.012;2022-08-03T09:37:42;101163.38;;;27.38;94.41
30421;BME280;17218;54.070;10.012;2022-08-03T09:40:32;101160.69;;;27.51;96.36
30421;BME280;17218;54.070;10.012;2022-08-03T09:42:59;101153.25;;;27.44;94.71
30421;BME280;17218;54.070;10.012;2022-08-03T09:45:26;101177.31;;;27.42;97.97
30421;BME280;17218;54.070;10.012;2022-08-03T09:47:54;101166.50;;;27.57;98.39
30421;BME280;17218;54.070;10.012;2022-08-03T09:50:25;101171.28;;;27.65;98.09
30421;BME280;17218;54.070;10.012;2022-08-03T09:52:51;101159.34;;;27.57;92.17
30421;BME280;17218;54.070;10.012;2022-08-03T09:55:21;101158.91;;;27.63;94.92
30421;BME280;17218;54.070;10.012;2022-08-03T09:57:49;101164.34;;;27.62;95.94
30421;BME280;17218;54.070;10.012;2022-08-03T10:00:16;101153.25;;;27.93;93.08
30421;BME280;17218;54.070;10.012;2022-08-03T10:02:43;101155.00;;;28.05;95.42
30421;BME280;17218;54.070;10.012;2022-08-03T10:05:11;101153.31;;;28.04;89.51
30421;BME280;17218;54.070;10.012;2022-08-03T10:07:43;101158.47;;;27.94;90.46
30421;BME280;17218;54.070;10.012;2022-08-03T10:10:10;101153.13;;;27.94;89.97
30421;BME280;17218;54.070;10.012;2022-08-03T10:12:37;101161.66;;;28.00;93.77
30421;BME280;17218;54.070;10.012;2022-08-03T10:15:08;101154.69;;;28.21;96.36
30421;BME280;17218;54.070;10.012;2022-08-03T10:17:35;101153.13;;;28.30;97.06
30421;BME280;17218;54.070;10.012;2022-08-03T10:20:08;101157.06;;;28.49;87.83
30421;BME280;17218;54.070;10.012;2022-08-03T10:22:35;101155.25;;;28.50;86.69
30421;BME280;17218;54.070;10.012;2022-08-03T10:25:08;101153.81;;;28.57;89.11
30421;BME280;17218;54.070;10.012;2022-08-03T10:27:37;101160.97;;;28.68;89.07
30421;BME280;17218;54.070;10.012;2022-08-03T10:30:06;101151.63;;;28.62;84.17
30421;BME280;17218;54.070;10.012;2022-08-03T10:32:36;101145.44;;;28.73;88.60
30421;BME280;17218;54.070;10.012;2022-08-03T10:35:07;101156.22;;;28.83;80.49
30421;BME280;17218;54.070;10.012;2022-08-03T10:37:40;101142.28;;;28.79;78.27
30421;BME280;17218;54.070;10.012;2022-08-03T10:40:12;101142.28;;;28.91;84.22
30421;BME280;17218;54.070;10.012;2022-08-03T10:42:40;101144.47;;;28.97;76.42
30421;BME280;17218;54.070;10.012;2022-08-03T10:45:12;101144.72;;;29.05;83.71
30421;BME280;17218;54.070;10.012;2022-08-03T10:47:40;101149.28;;;29.26;80.25
30421;BME280;17218;54.070;10.012;2022-08-03T10:50:08;101144.06;;;29.36;84.39
30421;BME280;17218;54.070;10.012;2022-08-03T10:52:35;101152.38;;;29.55;76.14
30421;BME280;17218;54.070;10.012;2022-08-03T10:55:02;101155.16;;;29.64;77.96
30421;BME280;17218;54.070;10.012;2022-08-03T10:58:07;101146.72;;;29.81;73.58
30421;BME280;17218;54.070;10.012;2022-08-03T11:00:49;101147.03;;;29.87;73.56
30421;BME280;17218;54.070;10.012;2022-08-03T11:03:16;101145.69;;;29.93;77.71
30421;BME280;17218;54.070;10.012;2022-08-03T11:05:44;101141.19;;;30.15;70.81
30421;BME280;17218;54.070;10.012;2022-08-03T11:08:25;101143.91;;;30.04;71.35
30421;BME280;17218;54.070;10.012;2022-08-03T11:10:54;101141.44;;;29.91;71.01
30421;BME280;17218;54.070;10.012;2022-08-03T11:13:24;101145.50;;;30.28;75.13
30421;BME280;17218;54.070;10.012;2022-08-03T11:15:55;101150.19;;;30.35;69.02
30421;BME280;17218;54.070;10.012;2022-08-03T11:18:22;101145.38;;;30.08;67.21
30421;BME280;17218;54.070;10.012;2022-08-03T11:20:51;101143.47;;;30.20;68.70
30421;BME280;17218;54.070;10.012;2022-08-03T11:23:20;101144.59;;;30.39;74.18
30421;BME280;17218;54.070;10.012;2022-08-03T11:26:15;101144.28;;;30.94;69.27
30421;BME280;17218;54.070;10.012;2022-08-03T11:28:45;101140.00;;;31.23;63.04
30421;BME280;17218;54.070;10.012;2022-08-03T11:31:43;101146.25;;;31.44;62.81
30421;BME280;17218;54.070;10.012;2022-08-03T11:34:11;101161.00;;;31.38;60.50
30421;BME280;17218;54.070;10.012;2022-08-03T11:39:39;101157.78;;;31.94;58.32
30421;BME280;17218;54.070;10.012;2022-08-03T11:42:39;101156.19;;;31.31;57.99
30421;BME280;17218;54.070;10.012;2022-08-03T11:45:07;101157.53;;;31.77;62.10
30421;BME280;17218;54.070;10.012;2022-08-03T11:47:37;101155.56;;;32.57;55.70
30421;BME280;17218;54.070;10.012;2022-08-03T11:50:05;101149.16;;;32.96;55.75
30421;BME280;17218;54.070;10.012;2022-08-03T11:52:39;101140.03;;;33.35;51.43
30421;BME280;17218;54.070;10.012;2022-08-03T11:55:16;101142.47;;;34.01;50.28
30421;BME280;17218;54.070;10.012;2022-08-03T11:57:45;101125.97;;;34.93;46.85
30421;BME280;17218;54.070;10.012;2022-08-03T12:00:25;101144.44;;;35.81;43.94
30421;BME280;17218;54.070;10.012;2022-08-03T12:02:56;101135.34;;;37.28;38.87
30421;BME280;17218;54.070;10.012;2022-08-03T12:05:38;101146.81;;;38.07;36.81
30421;BME280;17218;54.070;10.012;2022-08-03T12:08:06;101138.13;;;37.81;37.47
30421;BME280;17218;54.070;10.012;2022-08-03T12:10:34;101135.25;;;38.74;35.43
30421;BME280;17218;54.070;10.012;2022-08-03T12:13:02;101126.53;;;39.16;35.59
30421;BME280;17218;54.070;10.012;2022-08-03T12:15:35;101135.22;;;38.89;35.05
30421;BME280;17218;54.070;10.012;2022-08-03T12:18:11;101136.00;;;39.48;33.40
30421;BME280;17218;54.070;10.012;2022-08-03T12:20:38;101134.66;;;39.88;33.52
30421;BME280;17218;54.070;10.012;2022-08-03T12:23:06;101136.28;;;41.09;32.71
30421;BME280;17218;54.070;10.012;2022-08-03T12:25:34;101130.81;;;41.02;32.04
30421;BME280;17218;54.070;10.012;2022-08-03T12:28:09;101125.22;;;41.38;32.28
30421;BME280;17218;54.070;10.012;2022-08-03T12:30:38;101119.34;;;41.61;30.85
30421;BME280;17218;54.070;10.012;2022-08-03T12:33:12;101131.97;;;40.73;30.81
30421;BME280;17218;54.070;10.012;2022-08-03T12:35:39;101139.00;;;40.11;31.21
30421;BME280;17218;54.070;10.012;2022-08-03T12:38:06;101133.00;;;38.62;33.44
30421;BME280;17218;54.070;10.012;2022-08-03T12:40:32;101134.44;;;37.35;35.10
30421;BME280;17218;54.070;10.012;2022-08-03T12:42:59;101133.53;;;36.56;36.29
30421;BME280;17218;54.070;10.012;2022-08-03T12:45:27;101133.34;;;35.51;37.45
30421;BME280;17218;54.070;10.012;2022-08-03T12:47:59;101134.50;;;35.31;40.72